createdAt,value
2023-04-02T00:00:37.134Z,4.70
2023-04-02T00:03:05.027Z,4.74
2023-04-02T00:05:54.908Z,4.73
2023-04-02T00:08:29.475Z,4.67
2023-04-02T00:11:01.116Z,4.63
2023-04-02T00:13:36.361Z,4.61
2023-04-02T00:16:07.167Z,4.59
2023-04-02T00:18:40.437Z,4.54
2023-04-02T00:21:27.382Z,4.53
2023-04-02T00:23:56.173Z,4.53
2023-04-02T00:26:34.580Z,4.52
2023-04-02T00:29:04.188Z,4.54
2023-04-02T00:31:32.525Z,4.51
2023-04-02T00:34:01.234Z,4.54
2023-04-02T00:36:30.918Z,4.54
2023-04-02T00:39:00.155Z,4.51
2023-04-02T00:41:30.663Z,4.50
2023-04-02T00:43:58.767Z,4.48
2023-04-02T00:46:34.733Z,4.45
2023-04-02T00:49:14.789Z,4.39
2023-04-02T00:51:49.696Z,4.35
2023-04-02T00:54:21.406Z,4.31
2023-04-02T00:56:51.795Z,4.29
2023-04-02T00:59:31.828Z,4.28
2023-04-02T01:02:18.641Z,4.26
2023-04-02T01:05:15.184Z,4.21
2023-04-02T01:07:50.730Z,4.19
2023-04-02T01:10:43.592Z,4.17
2023-04-02T01:13:26.314Z,4.16
2023-04-02T01:16:17.254Z,4.15
2023-04-02T01:19:27.128Z,4.11
2023-04-02T01:22:10.438Z,4.10
2023-04-02T01:24:40.069Z,4.09
2023-04-02T01:27:22.543Z,4.08
2023-04-02T01:30:00.559Z,4.04
2023-04-02T01:32:30.023Z,4.03
2023-04-02T01:34:58.208Z,4.04
2023-04-02T01:37:44.853Z,4.07
2023-04-02T01:40:46.642Z,4.09
2023-04-02T01:43:23.323Z,4.06
2023-04-02T01:45:50.356Z,4.06
2023-04-02T01:48:20.979Z,4.04
2023-04-02T01:50:51.314Z,4.05
2023-04-02T01:53:20.437Z,4.04
2023-04-02T01:56:07.496Z,4.02
2023-04-02T01:58:34.298Z,3.98
2023-04-02T02:01:17.672Z,3.94
2023-04-02T02:03:45.637Z,3.93
2023-04-02T02:06:17.618Z,3.94
2023-04-02T02:08:51.829Z,3.94
2023-04-02T02:11:25.200Z,3.97
2023-04-02T02:13:56.207Z,3.98
2023-04-02T02:16:23.561Z,3.93
2023-04-02T02:18:53.631Z,3.89
2023-04-02T02:21:43.421Z,3.88
2023-04-02T02:24:30.843Z,3.87
2023-04-02T02:27:30.825Z,3.89
2023-04-02T02:30:20.152Z,3.88
2023-04-02T02:32:52.842Z,3.85
2023-04-02T02:35:31.084Z,3.84
2023-04-02T02:38:28.501Z,3.86
2023-04-02T02:41:04.974Z,3.87
2023-04-02T02:43:34.314Z,3.87
2023-04-02T02:46:04.798Z,3.88
2023-04-02T02:48:38.923Z,3.86
2023-04-02T02:51:15.585Z,3.84
2023-04-02T02:53:50.183Z,3.84
2023-04-02T02:56:17.150Z,3.83
2023-04-02T02:58:44.457Z,3.83
2023-04-02T03:01:19.831Z,3.79
2023-04-02T03:03:49.448Z,3.78
2023-04-02T03:06:20.575Z,3.74
2023-04-02T03:09:02.268Z,3.74
2023-04-02T03:11:53.519Z,3.75
2023-04-02T03:14:22.730Z,3.76
2023-04-02T03:16:57.249Z,3.75
2023-04-02T03:19:31.334Z,3.76
2023-04-02T03:22:12.545Z,3.77
2023-04-02T03:24:50.900Z,3.80
2023-04-02T03:27:22.738Z,3.83
2023-04-02T03:30:10.675Z,3.86
2023-04-02T03:32:40.956Z,3.87
2023-04-02T03:35:22.231Z,3.84
2023-04-02T03:38:04.282Z,3.83
2023-04-02T03:41:00.558Z,3.83
2023-04-02T03:43:34.982Z,3.86
2023-04-02T03:46:16.225Z,3.88
2023-04-02T03:48:48.587Z,3.90
2023-04-02T03:51:30.212Z,3.90
2023-04-02T03:53:57.121Z,3.86
2023-04-02T03:56:31.553Z,3.88
2023-04-02T03:59:16.964Z,3.87
2023-04-02T04:01:53.507Z,3.86
2023-04-02T04:04:22.394Z,3.89
2023-04-02T04:06:52.366Z,3.90
2023-04-02T04:09:33.603Z,3.92
2023-04-02T04:12:35.300Z,3.93
2023-04-02T04:15:17.014Z,3.93
2023-04-02T04:18:02.438Z,3.94
2023-04-02T04:20:50.420Z,3.93
2023-04-02T04:23:51.471Z,3.92
2023-04-02T04:26:35.441Z,3.93
2023-04-02T04:29:21.662Z,3.93
2023-04-02T04:31:55.108Z,3.92
2023-04-02T04:34:46.533Z,3.94
2023-04-02T04:37:37.666Z,3.92
2023-04-02T04:40:28.302Z,3.93
2023-04-02T04:43:03.115Z,3.95
2023-04-02T04:45:44.189Z,3.95
2023-04-02T04:48:29.906Z,3.95
2023-04-02T04:51:04.962Z,3.94
2023-04-02T04:53:32.204Z,3.96
2023-04-02T04:56:18.064Z,3.96
2023-04-02T04:58:52.577Z,4.00
2023-04-02T05:01:27.442Z,4.03
2023-04-02T05:04:02.506Z,4.04
2023-04-02T05:06:39.244Z,4.06
2023-04-02T05:09:15.599Z,4.08
2023-04-02T05:11:47.154Z,4.09
2023-04-02T05:14:25.961Z,4.09
2023-04-02T05:17:10.332Z,4.11
2023-04-02T05:19:44.239Z,4.15
2023-04-02T05:22:23.237Z,4.16
2023-04-02T05:25:14.912Z,4.19
2023-04-02T05:27:49.287Z,4.23
2023-04-02T05:30:24.574Z,4.25
2023-04-02T05:33:05.053Z,4.27
2023-04-02T05:35:36.079Z,4.28
2023-04-02T05:38:04.709Z,4.32
2023-04-02T05:40:38.751Z,4.32
2023-04-02T05:43:10.484Z,4.34
2023-04-02T05:45:51.564Z,4.35
2023-04-02T05:48:28.745Z,4.31
2023-04-02T05:50:58.890Z,4.28
2023-04-02T05:53:34.729Z,4.28
2023-04-02T05:56:14.450Z,4.32
2023-04-02T05:58:47.127Z,4.35
2023-04-02T06:02:03.333Z,4.36
2023-04-02T06:04:36.999Z,4.35
2023-04-02T06:07:07.150Z,4.37
2023-04-02T06:09:56.190Z,4.39
2023-04-02T06:12:43.616Z,4.43
2023-04-02T06:15:19.561Z,4.46
2023-04-02T06:17:51.919Z,4.47
2023-04-02T06:20:20.596Z,4.46
2023-04-02T06:22:58.778Z,4.48
2023-04-02T06:25:32.365Z,4.49
2023-04-02T06:28:15.090Z,4.50
2023-04-02T06:30:52.541Z,4.54
2023-04-02T06:33:20.037Z,4.59
2023-04-02T06:35:51.253Z,4.63
2023-04-02T06:38:29.398Z,4.70
2023-04-02T06:40:59.983Z,4.74
2023-04-02T06:44:13.758Z,4.78
2023-04-02T06:47:33.125Z,4.83
2023-04-02T06:50:05.814Z,4.87
2023-04-02T06:52:48.786Z,4.91
2023-04-02T06:55:29.925Z,4.95
2023-04-02T06:57:56.877Z,5.01
2023-04-02T07:00:36.008Z,5.07
2023-04-02T07:03:08.116Z,5.11
2023-04-02T07:05:35.174Z,5.15
2023-04-02T07:08:01.980Z,5.19
2023-04-02T07:10:28.497Z,5.21
2023-04-02T07:12:55.005Z,5.24
2023-04-02T07:15:25.314Z,5.27
2023-04-02T07:17:54.784Z,5.27
2023-04-02T07:20:32.859Z,5.28
2023-04-02T07:23:04.597Z,5.32
2023-04-02T07:25:31.079Z,5.32
2023-04-02T07:27:57.566Z,5.36
2023-04-02T07:30:24.056Z,5.42
2023-04-02T07:32:50.676Z,5.47
2023-04-02T07:35:17.471Z,5.50
2023-04-02T07:37:44.010Z,5.52
2023-04-02T07:40:18.322Z,5.50
2023-04-02T07:42:45.252Z,5.47
2023-04-02T07:45:12.261Z,5.46
2023-04-02T07:47:39.857Z,5.46
2023-04-02T07:50:08.219Z,5.48
2023-04-02T07:52:47.201Z,5.56
2023-04-02T07:55:18.764Z,6.03
2023-04-02T07:57:51.390Z,6.68
2023-04-02T08:00:19.115Z,7.06
2023-04-02T08:02:46.929Z,7.00
2023-04-02T08:05:15.021Z,6.87
2023-04-02T08:07:42.052Z,6.75
2023-04-02T08:10:11.308Z,6.70
2023-04-02T08:12:38.440Z,6.56
2023-04-02T08:15:07.323Z,6.46
2023-04-02T08:17:35.250Z,6.38
2023-04-02T08:20:01.846Z,6.27
2023-04-02T08:22:29.234Z,6.17
2023-04-02T08:24:56.468Z,6.10
2023-04-02T08:27:25.173Z,6.09
2023-04-02T08:29:52.095Z,6.08
2023-04-02T08:32:18.761Z,6.10
2023-04-02T08:34:45.503Z,6.10
2023-04-02T08:37:12.670Z,6.07
2023-04-02T08:39:39.782Z,6.08
2023-04-02T08:42:26.612Z,6.08
2023-04-02T08:45:23.608Z,6.09
2023-04-02T08:47:55.949Z,6.11
2023-04-02T08:50:37.451Z,6.11
2023-04-02T08:53:11.361Z,6.14
2023-04-02T08:55:52.606Z,6.10
2023-04-02T08:58:43.677Z,6.09
2023-04-02T09:01:34.515Z,6.09
2023-04-02T09:04:03.368Z,6.10
2023-04-02T09:06:30.130Z,6.09
2023-04-02T09:08:58.455Z,6.11
2023-04-02T09:11:34.343Z,6.15
2023-04-02T09:14:06.433Z,6.26
2023-04-02T09:16:43.438Z,6.36
2023-04-02T09:19:20.669Z,6.46
2023-04-02T09:22:02.505Z,6.52
2023-04-02T09:24:29.378Z,6.58
2023-04-02T09:26:56.119Z,6.66
2023-04-02T09:29:41.451Z,6.63
2023-04-02T09:32:46.625Z,6.69
2023-04-02T09:35:26.301Z,6.81
2023-04-02T09:38:35.215Z,6.87
2023-04-02T09:41:04.218Z,7.02
2023-04-02T09:43:33.539Z,7.09
2023-04-02T09:46:23.260Z,7.24
2023-04-02T09:49:01.339Z,7.29
2023-04-02T09:51:36.635Z,7.33
2023-04-02T09:54:03.372Z,7.40
2023-04-02T09:56:37.733Z,7.51
2023-04-02T09:59:15.220Z,7.55
2023-04-02T10:01:45.562Z,7.68
2023-04-02T10:04:44.447Z,7.69
2023-04-02T10:07:45.190Z,7.76
2023-04-02T10:10:30.689Z,7.78
2023-04-02T10:13:05.092Z,7.82
2023-04-02T10:15:43.416Z,7.86
2023-04-02T10:18:20.927Z,7.91
2023-04-02T10:20:51.338Z,8.02
2023-04-02T10:23:20.190Z,8.15
2023-04-02T10:25:57.807Z,8.16
2023-04-02T10:28:32.843Z,8.25
2023-04-02T10:31:15.365Z,8.42
2023-04-02T10:33:46.240Z,8.62
2023-04-02T10:36:27.560Z,8.72
2023-04-02T10:38:56.907Z,8.87
2023-04-02T10:41:48.831Z,8.83
2023-04-02T10:44:27.265Z,8.87
2023-04-02T10:46:59.731Z,9.02
2023-04-02T10:49:38.541Z,9.05
2023-04-02T10:52:10.006Z,8.99
2023-04-02T10:55:30.224Z,9.16
2023-04-02T10:58:06.395Z,9.22
2023-04-02T11:00:37.846Z,9.32
2023-04-02T11:03:12.533Z,9.46
2023-04-02T11:05:51.368Z,9.44
2023-04-02T11:08:20.919Z,9.39
2023-04-02T11:10:53.662Z,9.44
2023-04-02T11:13:31.201Z,9.48
2023-04-02T11:16:00.319Z,9.50
2023-04-02T11:18:37.175Z,9.50
2023-04-02T11:21:54.983Z,9.24
2023-04-02T11:24:31.683Z,8.76
2023-04-02T11:27:10.511Z,8.33
2023-04-02T11:29:52.290Z,8.11
2023-04-02T11:32:21.890Z,7.93
2023-04-02T11:34:56.447Z,7.86
2023-04-02T11:37:35.618Z,8.04
2023-04-02T11:40:14.157Z,8.41
2023-04-02T11:42:44.669Z,8.62
2023-04-02T11:45:20.896Z,8.75
2023-04-02T11:48:08.359Z,8.51
2023-04-02T11:50:46.201Z,8.17
2023-04-02T11:53:13.472Z,8.01
2023-04-02T11:55:45.538Z,7.96
2023-04-02T11:58:46.169Z,7.84
2023-04-02T12:01:40.079Z,7.82
2023-04-02T12:04:15.593Z,7.82
2023-04-02T12:07:19.661Z,7.85
2023-04-02T12:09:55.709Z,7.91
2023-04-02T12:12:39.481Z,8.08
2023-04-02T12:15:25.515Z,8.60
2023-04-02T12:17:52.174Z,9.08
2023-04-02T12:20:22.828Z,9.43
2023-04-02T12:22:55.083Z,9.66
2023-04-02T12:25:31.444Z,9.85
2023-04-02T12:28:10.359Z,9.97
2023-04-02T12:30:38.576Z,10.07
2023-04-02T12:33:22.085Z,9.98
2023-04-02T12:35:53.379Z,9.74
2023-04-02T12:38:21.483Z,9.40
2023-04-02T12:41:38.498Z,9.14
2023-04-02T12:44:15.412Z,9.10
2023-04-02T12:46:43.749Z,9.23
2023-04-02T12:49:33.610Z,9.31
2023-04-02T12:52:06.175Z,9.33
2023-04-02T12:54:39.329Z,9.40
2023-04-02T12:57:28.939Z,9.42
2023-04-02T13:00:01.469Z,9.27
2023-04-02T13:02:33.272Z,9.27
2023-04-02T13:05:01.701Z,9.42
2023-04-02T13:07:32.388Z,9.60
2023-04-02T13:10:04.280Z,9.80
2023-04-02T13:12:34.834Z,10.00
2023-04-02T13:15:04.303Z,9.87
2023-04-02T13:17:45.562Z,9.71
2023-04-02T13:20:38.093Z,9.58
2023-04-02T13:23:36.665Z,9.48
2023-04-02T13:26:22.760Z,9.61
2023-04-02T13:29:17.891Z,10.03
2023-04-02T13:31:45.491Z,10.35
2023-04-02T13:34:12.147Z,10.51
2023-04-02T13:36:41.273Z,10.40
2023-04-02T13:39:09.221Z,10.50
2023-04-02T13:41:51.841Z,10.56
2023-04-02T13:44:35.631Z,10.59
2023-04-02T13:47:02.296Z,10.53
2023-04-02T13:49:29.222Z,10.43
2023-04-02T13:51:59.268Z,10.09
2023-04-02T13:54:37.369Z,9.77
2023-04-02T13:57:04.337Z,9.60
2023-04-02T13:59:30.941Z,9.69
2023-04-02T14:02:03.640Z,10.08
2023-04-02T14:04:37.644Z,10.31
2023-04-02T14:07:17.308Z,10.36
2023-04-02T14:09:54.966Z,10.29
2023-04-02T14:12:41.350Z,10.35
2023-04-02T14:15:27.952Z,10.14
2023-04-02T14:18:32.922Z,9.68
2023-04-02T14:21:12.128Z,9.33
2023-04-02T14:23:55.473Z,9.24
2023-04-02T14:26:51.605Z,9.34
2023-04-02T14:29:28.779Z,9.76
2023-04-02T14:32:06.599Z,10.08
2023-04-02T14:34:46.510Z,10.26
2023-04-02T14:37:23.190Z,10.18
2023-04-02T14:39:56.167Z,10.32
2023-04-02T14:42:30.642Z,10.40
2023-04-02T14:45:05.110Z,10.39
2023-04-02T14:47:39.267Z,10.44
2023-04-02T14:50:12.109Z,10.49
2023-04-02T14:52:42.230Z,10.47
2023-04-02T14:55:18.985Z,10.34
2023-04-02T14:57:53.575Z,10.26
2023-04-02T15:00:20.938Z,10.18
2023-04-02T15:02:54.527Z,10.09
2023-04-02T15:05:28.180Z,9.99
2023-04-02T15:08:03.276Z,9.80
2023-04-02T15:10:42.625Z,9.64
2023-04-02T15:13:20.091Z,9.53
2023-04-02T15:15:54.286Z,9.74
2023-04-02T15:18:22.504Z,10.02
2023-04-02T15:20:59.489Z,10.09
2023-04-02T15:23:54.988Z,10.07
2023-04-02T15:26:37.216Z,10.09
2023-04-02T15:29:15.890Z,10.04
2023-04-02T15:31:51.317Z,10.01
2023-04-02T15:34:34.798Z,9.95
2023-04-02T15:37:19.465Z,9.92
2023-04-02T15:40:03.364Z,9.99
2023-04-02T15:42:36.638Z,10.01
2023-04-02T15:45:12.475Z,9.91
2023-04-02T15:47:44.717Z,9.90
2023-04-02T15:50:29.022Z,9.68
2023-04-02T15:53:36.306Z,9.42
2023-04-02T15:56:15.715Z,9.35
2023-04-02T15:59:02.308Z,9.61
2023-04-02T16:02:01.081Z,9.84
2023-04-02T16:04:52.431Z,9.96
2023-04-02T16:07:29.229Z,9.93
2023-04-02T16:10:30.324Z,9.73
2023-04-02T16:13:31.579Z,9.43
2023-04-02T16:16:05.904Z,9.21
2023-04-02T16:18:40.442Z,9.09
2023-04-02T16:21:08.959Z,9.21
2023-04-02T16:23:37.836Z,9.32
2023-04-02T16:26:16.491Z,9.43
2023-04-02T16:28:51.185Z,10.17
2023-04-02T16:31:28.612Z,9.80
2023-04-02T16:33:56.695Z,9.67
2023-04-02T16:36:32.600Z,9.50
2023-04-02T16:39:08.647Z,9.37
2023-04-02T16:41:51.540Z,9.21
2023-04-02T16:44:52.328Z,9.11
2023-04-02T16:47:50.076Z,9.02
2023-04-02T16:50:48.880Z,8.89
2023-04-02T16:53:29.866Z,8.79
2023-04-02T16:56:18.289Z,8.76
2023-04-02T16:58:54.080Z,8.72
2023-04-02T17:01:42.497Z,9.04
2023-04-02T17:04:32.985Z,8.88
2023-04-02T17:07:23.890Z,8.81
2023-04-02T17:09:53.833Z,8.78
2023-04-02T17:12:39.802Z,8.75
2023-04-02T17:15:28.799Z,8.65
2023-04-02T17:18:01.835Z,8.57
2023-04-02T17:20:28.834Z,8.52
2023-04-02T17:22:56.239Z,8.44
2023-04-02T17:25:31.714Z,8.35
2023-04-02T17:27:58.254Z,8.29
2023-04-02T17:30:44.776Z,8.26
2023-04-02T17:33:13.172Z,8.22
2023-04-02T17:36:07.473Z,8.16
2023-04-02T17:38:51.295Z,8.04
2023-04-02T17:41:52.428Z,7.88
2023-04-02T17:44:37.018Z,7.72
2023-04-02T17:47:09.818Z,7.55
2023-04-02T17:50:21.363Z,7.36
2023-04-02T17:53:18.953Z,7.18
2023-04-02T17:56:01.029Z,7.05
2023-04-02T17:58:55.778Z,6.92
2023-04-02T18:01:33.705Z,6.89
2023-04-02T18:04:09.115Z,6.89
2023-04-02T18:06:42.910Z,6.91
2023-04-02T18:09:39.651Z,6.90
2023-04-02T18:12:27.583Z,6.86
2023-04-02T18:14:57.037Z,6.77
2023-04-02T18:17:38.624Z,6.65
2023-04-02T18:20:25.686Z,6.58
2023-04-02T18:23:20.288Z,6.52
2023-04-02T18:26:04.785Z,6.51
2023-04-02T18:29:23.190Z,6.44
2023-04-02T18:32:35.700Z,6.34
2023-04-02T18:35:14.784Z,6.25
2023-04-02T18:37:57.853Z,6.15
2023-04-02T18:40:33.227Z,6.04
2023-04-02T18:43:15.010Z,5.91
2023-04-02T18:45:53.484Z,5.84
2023-04-02T18:48:51.162Z,5.76
2023-04-02T18:51:22.066Z,5.75
2023-04-02T18:54:06.596Z,5.75
2023-04-02T18:56:33.624Z,5.68
2023-04-02T18:59:12.776Z,5.61
2023-04-02T19:04:25.441Z,5.47
2023-04-02T19:07:16.376Z,5.41
2023-04-02T19:09:47.951Z,5.34
2023-04-02T19:12:19.929Z,5.27
2023-04-02T19:14:52.508Z,5.22
2023-04-02T19:17:37.058Z,5.15
2023-04-02T19:20:31.398Z,5.07
2023-04-02T19:23:19.758Z,5.00
2023-04-02T19:26:02.529Z,4.94
2023-04-02T19:28:52.879Z,4.89
2023-04-02T19:31:26.935Z,4.84
2023-04-02T19:34:06.074Z,4.77
2023-04-02T19:36:41.647Z,4.70
2023-04-02T19:39:17.163Z,4.66
2023-04-02T19:41:49.877Z,4.61
2023-04-02T19:44:18.303Z,4.59
2023-04-02T19:46:46.472Z,4.54
2023-04-02T19:49:40.810Z,4.50
2023-04-02T19:52:07.296Z,4.47
2023-04-02T19:54:34.614Z,4.44
2023-04-02T19:57:03.927Z,4.40
2023-04-02T19:59:31.682Z,4.35
2023-04-02T20:02:05.869Z,4.30
2023-04-02T20:04:32.504Z,4.25
2023-04-02T20:06:59.069Z,4.20
2023-04-02T20:09:25.822Z,4.15
2023-04-02T20:11:52.289Z,4.10
2023-04-02T20:14:21.304Z,4.05
2023-04-02T20:16:47.894Z,4.00
2023-04-02T20:19:14.437Z,3.97
2023-04-02T20:21:40.963Z,3.94
2023-04-02T20:24:08.369Z,3.92
2023-04-02T20:26:35.882Z,3.89
2023-04-02T20:29:04.808Z,3.85
2023-04-02T20:31:31.476Z,3.82
2023-04-02T20:33:59.424Z,3.79
2023-04-02T20:36:26.654Z,3.75
2023-04-02T20:38:53.212Z,3.73
2023-04-02T20:41:20.183Z,3.70
2023-04-02T20:43:46.774Z,3.64
2023-04-02T20:46:15.688Z,3.61
2023-04-02T20:48:42.895Z,3.59
2023-04-02T20:51:12.973Z,3.55
2023-04-02T20:53:39.674Z,3.52
2023-04-02T20:56:15.388Z,3.47
2023-04-02T20:58:43.129Z,3.46
2023-04-02T21:01:11.462Z,3.45
2023-04-02T21:03:39.796Z,3.41
2023-04-02T21:06:13.011Z,3.39
2023-04-02T21:08:39.675Z,3.35
2023-04-02T21:11:08.033Z,3.32
2023-04-02T21:13:37.905Z,3.28
2023-04-02T21:16:13.361Z,3.25
2023-04-02T21:18:39.932Z,3.26
2023-04-02T21:21:07.238Z,3.25
2023-04-02T21:23:34.416Z,3.18
2023-04-02T21:26:06.109Z,3.17
2023-04-02T21:28:38.771Z,3.15
2023-04-02T21:31:10.630Z,3.10
2023-04-02T21:33:41.374Z,3.05
2023-04-02T21:36:13.238Z,3.01
2023-04-02T21:38:49.669Z,2.95
2023-04-02T21:41:17.555Z,2.92
2023-04-02T21:43:48.255Z,2.89
2023-04-02T21:46:18.002Z,2.83
2023-04-02T21:48:45.366Z,2.80
2023-04-02T21:51:16.987Z,2.77
2023-04-02T21:53:44.419Z,2.73
2023-04-02T21:56:16.789Z,2.70
2023-04-02T21:58:44.556Z,2.66
2023-04-02T22:01:23.893Z,2.61
2023-04-02T22:03:55.413Z,2.58
2023-04-02T22:06:25.216Z,2.55
2023-04-02T22:08:54.496Z,2.53
2023-04-02T22:11:24.982Z,2.49
2023-04-02T22:13:52.312Z,2.46
2023-04-02T22:16:21.467Z,2.42
2023-04-02T22:18:50.452Z,2.38
2023-04-02T22:21:17.689Z,2.35
2023-04-02T22:23:44.741Z,2.33
2023-04-02T22:26:12.837Z,2.30
2023-04-02T22:28:39.817Z,2.26
2023-04-02T22:31:14.092Z,2.22
2023-04-02T22:33:41.471Z,2.21
2023-04-02T22:36:08.976Z,2.17
2023-04-02T22:38:36.379Z,2.14
2023-04-02T22:41:07.910Z,2.10
2023-04-02T22:43:35.923Z,2.07
2023-04-02T22:46:04.347Z,2.06
2023-04-02T22:48:31.010Z,2.03
2023-04-02T22:50:57.760Z,2.01
2023-04-02T22:53:24.845Z,1.95
2023-04-02T22:55:52.300Z,1.91
2023-04-02T22:58:19.726Z,1.91
2023-04-02T23:00:46.830Z,1.88
2023-04-02T23:03:13.438Z,1.87
2023-04-02T23:05:42.355Z,1.82
2023-04-02T23:08:09.139Z,1.77
2023-04-02T23:10:36.045Z,1.74
2023-04-02T23:13:05.510Z,1.71
2023-04-02T23:15:32.264Z,1.68
2023-04-02T23:17:58.791Z,1.65
2023-04-02T23:20:25.457Z,1.61
2023-04-02T23:22:53.043Z,1.58
2023-04-02T23:25:21.128Z,1.56
2023-04-02T23:27:47.753Z,1.53
2023-04-02T23:30:15.502Z,1.51
2023-04-02T23:32:42.344Z,1.47
2023-04-02T23:35:09.210Z,1.43
2023-04-02T23:37:36.703Z,1.40
2023-04-02T23:40:03.803Z,1.37
2023-04-02T23:42:30.406Z,1.35
2023-04-02T23:44:56.855Z,1.32
2023-04-02T23:47:23.405Z,1.28
2023-04-02T23:49:49.903Z,1.26
2023-04-02T23:52:16.473Z,1.24
2023-04-02T23:54:43.289Z,1.21
2023-04-02T23:57:10.171Z,1.17
2023-04-02T23:59:38.232Z,1.15
